Corona Emblem — 3FHF8 — position and weather

sailwx.info

Track history (hours):
 
Tides and Currents Weather Stations Pressure Air Temp Water Temp Dewpoint Dewpoint Depression Visibility Wind Speed Wind Dir Waves Ship Positions

Corona Emblem

Last reported at 2015-Feb-23 05:33 UTC. Time now 2015-Mar-01 04:33 UTC.
Position S 27°04' E 153°54'.

Length 230 m; beam 36 m.

Type: Cargo ship. MMSI: 354224000.

Date/timePositionNaut miles runAvg speedWind from/ knotsBaromVisibWave heightAir tempDewpointWater temp
2015-Feb-23 05:33S 27°04' E 153°54'10 9.1
2015-Feb-23 04:28S 27°13' E 153°57'26 8.3
2015-Feb-23 01:18S 27°39' E 154°02'6 7.5
2015-Feb-23 00:29S 27°45' E 154°03'7 7.3
2015-Feb-22 23:30S 27°52' E 154°03'283 7.0
2015-Feb-21 07:12S 32°26' E 152°41'6 8.5
2015-Feb-21 06:26S 32°31' E 152°37'8 9.4
2015-Feb-21 05:33S 32°37' E 152°30'1010.1
2015-Feb-21 04:33S 32°44' E 152°21'1010.1
2015-Feb-21 03:33S 32°51' E 152°12'1010.4
2015-Feb-21 02:34S 32°55' E 152°01'9 9.3
2015-Feb-21 01:33S 32°57' E 151°50'4 4.4
2015-Feb-21 00:33S 32°54' E 151°46'0 0.4
2015-Feb-20 23:33S 32°53' E 151°46'0 0.0
2015-Feb-20 22:30S 32°53' E 151°46'0 0.0
2015-Feb-20 21:24S 32°53' E 151°46'0 0.0
2015-Feb-20 20:30S 32°53' E 151°46'0 0.0
2015-Feb-20 19:30S 32°53' E 151°46'0 0.0
2015-Feb-20 18:30S 32°53' E 151°46'0 0.0
2015-Feb-20 17:24S 32°53' E 151°46'0 0.0
2015-Feb-20 16:18S 32°53' E 151°46'0 0.0
2015-Feb-20 15:30S 32°53' E 151°46'0 0.0
2015-Feb-20 14:33S 32°53' E 151°46'0 0.0
2015-Feb-20 13:30S 32°53' E 151°46'0 0.0
2015-Feb-20 12:30S 32°53' E 151°46'0 0.0
2015-Feb-20 11:33S 32°53' E 151°46'0 0.0
2015-Feb-20 10:27S 32°53' E 151°46'0 0.0
2015-Feb-20 09:30S 32°53' E 151°46'0 0.0
2015-Feb-20 08:27S 32°53' E 151°46'0 0.0
2015-Feb-20 07:33S 32°53' E 151°46'0 0.0
2015-Feb-20 06:33S 32°53' E 151°46'0 0.0
2015-Feb-20 05:33S 32°53' E 151°46'0 0.0
2015-Feb-20 04:33S 32°53' E 151°46'0 0.0
2015-Feb-20 03:33S 32°53' E 151°46'0 0.1
2015-Feb-20 02:33S 32°53' E 151°46'4 4.2
2015-Feb-20 01:33S 32°56' E 151°50'8 6.8
2015-Feb-20 00:23S 33°04' E 151°49'8 8.1
2015-Feb-19 23:24S 33°11' E 151°45'18 1.8
2015-Feb-19 13:27S 33°26' E 151°33'  
2015-Feb-16 08:18S 33°26' E 151°33'0 0.0
2015-Feb-16 06:18S 33°26' E 151°33'0 0.0
2015-Feb-16 05:30S 33°26' E 151°33'0 0.0
2015-Feb-16 04:18S 33°26' E 151°33'0 0.0
2015-Feb-15 03:12S 33°26' E 151°33'0 0.0
2015-Feb-15 02:24S 33°26' E 151°33'  
Track history (hours):
 
Tides and Currents Weather Stations Pressure Air Temp Water Temp Dewpoint Dewpoint Depression Visibility Wind Speed Wind Dir Waves Ship Positions

Corona Emblem

Last reported at 2015-Feb-23 05:33 UTC. Time now 2015-Mar-01 04:33 UTC.
Position S 27°04' E 153°54'.

Length 230 m; beam 36 m.

Type: Cargo ship. MMSI: 354224000.

Date/timePositionNaut miles runAvg speedWind from/ knotsBaromVisibWave heightAir tempDewpointWater temp
2015-Feb-23 05:33S 27°04' E 153°54'10 9.1
2015-Feb-23 04:28S 27°13' E 153°57'26 8.3
2015-Feb-23 01:18S 27°39' E 154°02'6 7.5
2015-Feb-23 00:29S 27°45' E 154°03'7 7.3
2015-Feb-22 23:30S 27°52' E 154°03'283 7.0
2015-Feb-21 07:12S 32°26' E 152°41'6 8.5
2015-Feb-21 06:26S 32°31' E 152°37'8 9.4
2015-Feb-21 05:33S 32°37' E 152°30'1010.1
2015-Feb-21 04:33S 32°44' E 152°21'1010.1
2015-Feb-21 03:33S 32°51' E 152°12'1010.4
2015-Feb-21 02:34S 32°55' E 152°01'9 9.3
2015-Feb-21 01:33S 32°57' E 151°50'4 4.4
2015-Feb-21 00:33S 32°54' E 151°46'0 0.4
2015-Feb-20 23:33S 32°53' E 151°46'0 0.0
2015-Feb-20 22:30S 32°53' E 151°46'0 0.0
2015-Feb-20 21:24S 32°53' E 151°46'0 0.0
2015-Feb-20 20:30S 32°53' E 151°46'0 0.0
2015-Feb-20 19:30S 32°53' E 151°46'0 0.0
2015-Feb-20 18:30S 32°53' E 151°46'0 0.0
2015-Feb-20 17:24S 32°53' E 151°46'0 0.0
2015-Feb-20 16:18S 32°53' E 151°46'0 0.0
2015-Feb-20 15:30S 32°53' E 151°46'0 0.0
2015-Feb-20 14:33S 32°53' E 151°46'0 0.0
2015-Feb-20 13:30S 32°53' E 151°46'0 0.0
2015-Feb-20 12:30S 32°53' E 151°46'0 0.0
2015-Feb-20 11:33S 32°53' E 151°46'0 0.0
2015-Feb-20 10:27S 32°53' E 151°46'0 0.0
2015-Feb-20 09:30S 32°53' E 151°46'0 0.0
2015-Feb-20 08:27S 32°53' E 151°46'0 0.0
2015-Feb-20 07:33S 32°53' E 151°46'0 0.0
2015-Feb-20 06:33S 32°53' E 151°46'0 0.0
2015-Feb-20 05:33S 32°53' E 151°46'0 0.0
2015-Feb-20 04:33S 32°53' E 151°46'0 0.0
2015-Feb-20 03:33S 32°53' E 151°46'0 0.1
2015-Feb-20 02:33S 32°53' E 151°46'4 4.2
2015-Feb-20 01:33S 32°56' E 151°50'8 6.8
2015-Feb-20 00:23S 33°04' E 151°49'8 8.1
2015-Feb-19 23:24S 33°11' E 151°45'18 1.8
2015-Feb-19 13:27S 33°26' E 151°33'  
2015-Feb-16 08:18S 33°26' E 151°33'0 0.0
2015-Feb-16 06:18S 33°26' E 151°33'0 0.0
2015-Feb-16 05:30S 33°26' E 151°33'0 0.0
2015-Feb-16 04:18S 33°26' E 151°33'0 0.0
2015-Feb-15 03:12S 33°26' E 151°33'0 0.0
2015-Feb-15 02:24S 33°26' E 151°33'  

Dump ship's entire track history